RAM56UF GMMN-LPPT
Flight info
| Callsign | RAM56UF |
|---|---|
| Flight time | 1h 3m |
| Altitude | 36000 |
| Route | LAKAM UR722 AMSEL DCT VATZI |
| Aircraft | B738/M-SDE2E3FGHIRWXY/LB1 |
Departure
| Time | 2026-05-07 18:07 |
|---|---|
| Airport | Mohammed V International Airport (GMMN) |
Arrival
| Time | 2026-05-07 19:10 |
|---|---|
| Airport | Lisbon Humberto Delgado Airport (LPPT) |
| Time | Latitude | Longitude | Altitude | Speed | Heading |
|---|---|---|---|---|---|
| 2026-05-07 17:15 | 33.37292 | -7.58408 | 655 ft | 0 kts | 119° |
| 2026-05-07 17:35 | 33.37291 | -7.58404 | 652 ft | 2 kts | 119° |
| 2026-05-07 17:35 | 33.37275 | -7.58370 | 653 ft | 7 kts | 118° |
| 2026-05-07 17:36 | 33.37240 | -7.58318 | 652 ft | 9 kts | 151° |
| 2026-05-07 17:36 | 33.37182 | -7.58298 | 655 ft | 8 kts | 164° |
| 2026-05-07 17:36 | 33.37124 | -7.58278 | 652 ft | 10 kts | 164° |
| 2026-05-07 17:36 | 33.37039 | -7.58250 | 655 ft | 16 kts | 165° |
| 2026-05-07 17:37 | 33.36956 | -7.58238 | 652 ft | 10 kts | 212° |
| 2026-05-07 17:37 | 33.36927 | -7.58316 | 652 ft | 11 kts | 255° |
| 2026-05-07 17:37 | 33.36907 | -7.58402 | 652 ft | 10 kts | 254° |
| 2026-05-07 17:37 | 33.36866 | -7.58464 | 652 ft | 10 kts | 188° |
| 2026-05-07 17:38 | 33.36796 | -7.58445 | 652 ft | 11 kts | 164° |
| 2026-05-07 17:38 | 33.36712 | -7.58416 | 652 ft | 15 kts | 164° |
| 2026-05-07 17:38 | 33.36586 | -7.58373 | 652 ft | 22 kts | 164° |
| 2026-05-07 17:38 | 33.36429 | -7.58320 | 652 ft | 24 kts | 164° |
| 2026-05-07 17:39 | 33.36269 | -7.58264 | 651 ft | 23 kts | 163° |
| 2026-05-07 17:39 | 33.36117 | -7.58212 | 651 ft | 22 kts | 164° |
| 2026-05-07 17:39 | 33.35970 | -7.58162 | 651 ft | 22 kts | 164° |
| 2026-05-07 17:39 | 33.35840 | -7.58118 | 651 ft | 18 kts | 164° |
| 2026-05-07 17:40 | 33.35727 | -7.58079 | 651 ft | 14 kts | 163° |
| 2026-05-07 17:40 | 33.35670 | -7.58059 | 651 ft | 0 kts | 164° |
| 2026-05-07 17:40 | 33.35669 | -7.58059 | 651 ft | 0 kts | 164° |
| 2026-05-07 17:41 | 33.35668 | -7.58058 | 651 ft | 1 kts | 164° |
| 2026-05-07 17:42 | 33.35664 | -7.58057 | 651 ft | 0 kts | 164° |
| 2026-05-07 17:42 | 33.35658 | -7.58055 | 651 ft | 1 kts | 164° |
| 2026-05-07 17:42 | 33.35649 | -7.58052 | 651 ft | 2 kts | 164° |
| 2026-05-07 17:42 | 33.35629 | -7.58045 | 651 ft | 5 kts | 164° |
| 2026-05-07 17:43 | 33.35589 | -7.58032 | 651 ft | 7 kts | 164° |
| 2026-05-07 17:43 | 33.35554 | -7.58020 | 651 ft | 0 kts | 164° |
| 2026-05-07 17:43 | 33.35552 | -7.58019 | 651 ft | 1 kts | 164° |
| 2026-05-07 17:43 | 33.35532 | -7.58012 | 653 ft | 5 kts | 164° |
| 2026-05-07 17:44 | 33.35509 | -7.58004 | 651 ft | 0 kts | 163° |
| 2026-05-07 17:44 | 33.35504 | -7.58003 | 651 ft | 0 kts | 163° |
| 2026-05-07 17:45 | 33.35502 | -7.58002 | 651 ft | 1 kts | 163° |
| 2026-05-07 17:45 | 33.35478 | -7.57994 | 653 ft | 6 kts | 164° |
| 2026-05-07 17:45 | 33.35473 | -7.57992 | 653 ft | 0 kts | 164° |
| 2026-05-07 17:49 | 33.35471 | -7.57991 | 654 ft | 1 kts | 164° |
| 2026-05-07 17:49 | 33.35450 | -7.57984 | 651 ft | 6 kts | 164° |
| 2026-05-07 17:49 | 33.35420 | -7.57974 | 652 ft | 0 kts | 164° |
| 2026-05-07 17:52 | 33.35414 | -7.57972 | 652 ft | 3 kts | 163° |
| 2026-05-07 17:52 | 33.35382 | -7.57961 | 652 ft | 7 kts | 163° |
| 2026-05-07 17:52 | 33.35361 | -7.57954 | 652 ft | 1 kts | 164° |
| 2026-05-07 17:52 | 33.35356 | -7.57952 | 652 ft | 0 kts | 164° |
| 2026-05-07 17:54 | 33.35337 | -7.57947 | 654 ft | 5 kts | 169° |
| 2026-05-07 17:54 | 33.35305 | -7.57945 | 652 ft | 0 kts | 189° |
| 2026-05-07 17:54 | 33.35304 | -7.57946 | 652 ft | 0 kts | 189° |
| 2026-05-07 17:55 | 33.35301 | -7.57947 | 653 ft | 1 kts | 195° |
| 2026-05-07 17:55 | 33.35299 | -7.57948 | 652 ft | 0 kts | 199° |
| 2026-05-07 17:55 | 33.35298 | -7.57948 | 652 ft | 0 kts | 199° |
| 2026-05-07 17:56 | 33.35292 | -7.57951 | 652 ft | 1 kts | 201° |
| 2026-05-07 17:56 | 33.35280 | -7.57961 | 652 ft | 3 kts | 220° |
| 2026-05-07 17:56 | 33.35259 | -7.57995 | 652 ft | 7 kts | 245° |
| 2026-05-07 17:56 | 33.35253 | -7.58012 | 654 ft | 0 kts | 251° |
| 2026-05-07 17:58 | 33.35253 | -7.58013 | 654 ft | 0 kts | 251° |
| 2026-05-07 17:58 | 33.35253 | -7.58016 | 654 ft | 0 kts | 251° |
| 2026-05-07 17:58 | 33.35251 | -7.58020 | 653 ft | 0 kts | 251° |
| 2026-05-07 17:58 | 33.35251 | -7.58021 | 653 ft | 0 kts | 251° |
| 2026-05-07 17:59 | 33.35248 | -7.58033 | 652 ft | 4 kts | 253° |
| 2026-05-07 17:59 | 33.35238 | -7.58075 | 653 ft | 0 kts | 254° |
| 2026-05-07 18:03 | 33.35238 | -7.58076 | 652 ft | 0 kts | 254° |
| 2026-05-07 18:04 | 33.35233 | -7.58097 | 652 ft | 5 kts | 254° |
| 2026-05-07 18:04 | 33.35219 | -7.58153 | 652 ft | 8 kts | 255° |
| 2026-05-07 18:04 | 33.35211 | -7.58217 | 653 ft | 8 kts | 278° |
| 2026-05-07 18:04 | 33.35242 | -7.58266 | 653 ft | 8 kts | 326° |
| 2026-05-07 18:05 | 33.35269 | -7.58279 | 654 ft | 1 kts | 345° |
| 2026-05-07 18:05 | 33.35271 | -7.58279 | 653 ft | 0 kts | 345° |
| 2026-05-07 18:06 | 33.35276 | -7.58281 | 653 ft | 4 kts | 345° |
| 2026-05-07 18:06 | 33.35471 | -7.58346 | 647 ft | 67 kts | 344° |
| 2026-05-07 18:06 | 33.36151 | -7.58581 | 646 ft | 133 kts | 341° |
| 2026-05-07 18:06 | 33.37130 | -7.58907 | 1124 ft | 148 kts | 345° |
| 2026-05-07 18:07 | 33.38134 | -7.59230 | 1947 ft | 150 kts | 347° |
| 2026-05-07 18:07 | 33.39189 | -7.59638 | 2423 ft | 175 kts | 340° |
| 2026-05-07 18:07 | 33.40374 | -7.60328 | 2714 ft | 198 kts | 333° |
| 2026-05-07 18:07 | 33.41623 | -7.61242 | 2952 ft | 224 kts | 328° |
| 2026-05-07 18:08 | 33.42921 | -7.62428 | 3436 ft | 242 kts | 321° |
| 2026-05-07 18:08 | 33.44125 | -7.63863 | 4243 ft | 248 kts | 311° |
| 2026-05-07 18:08 | 33.45194 | -7.65525 | 4985 ft | 254 kts | 303° |
| 2026-05-07 18:08 | 33.46178 | -7.67280 | 5849 ft | 257 kts | 301° |
| 2026-05-07 18:09 | 33.47173 | -7.69101 | 6556 ft | 265 kts | 299° |
| 2026-05-07 18:09 | 33.48226 | -7.70925 | 7370 ft | 270 kts | 310° |
| 2026-05-07 18:09 | 33.49860 | -7.72076 | 8181 ft | 282 kts | 345° |
| 2026-05-07 18:09 | 33.51854 | -7.72290 | 8854 ft | 297 kts | 355° |
| 2026-05-07 18:10 | 33.53959 | -7.72341 | 9544 ft | 308 kts | 356° |
| 2026-05-07 18:10 | 33.56131 | -7.72364 | 10329 ft | 314 kts | 356° |
| 2026-05-07 18:10 | 33.58384 | -7.72390 | 10701 ft | 337 kts | 356° |
| 2026-05-07 18:10 | 33.60822 | -7.72428 | 10923 ft | 362 kts | 356° |
| 2026-05-07 18:11 | 33.63382 | -7.72474 | 11490 ft | 372 kts | 356° |
| 2026-05-07 18:11 | 33.65108 | -7.72507 | 11979 ft | 376 kts | 356° |
| 2026-05-07 18:11 | 33.68603 | -7.72579 | 13036 ft | 382 kts | 356° |
| 2026-05-07 18:11 | 33.71272 | -7.72639 | 13859 ft | 386 kts | 355° |
| 2026-05-07 18:12 | 33.73972 | -7.72703 | 14505 ft | 390 kts | 355° |
| 2026-05-07 18:12 | 33.76684 | -7.72767 | 14864 ft | 390 kts | 355° |
| 2026-05-07 18:12 | 33.79401 | -7.72833 | 14940 ft | 390 kts | 355° |
| 2026-05-07 18:12 | 33.82123 | -7.72899 | 14955 ft | 392 kts | 355° |
| 2026-05-07 18:13 | 33.84846 | -7.72966 | 14956 ft | 392 kts | 355° |
| 2026-05-07 18:13 | 33.87593 | -7.73034 | 15261 ft | 398 kts | 355° |
| 2026-05-07 18:13 | 33.90371 | -7.73103 | 16129 ft | 398 kts | 355° |
| 2026-05-07 18:13 | 33.93146 | -7.73170 | 17016 ft | 399 kts | 355° |
| 2026-05-07 18:14 | 33.95933 | -7.73239 | 17788 ft | 403 kts | 354° |
| 2026-05-07 18:14 | 33.98762 | -7.73310 | 18488 ft | 408 kts | 354° |
| 2026-05-07 18:14 | 34.01621 | -7.73382 | 19101 ft | 413 kts | 354° |
| 2026-05-07 18:14 | 34.04512 | -7.73453 | 19756 ft | 417 kts | 354° |
| 2026-05-07 18:15 | 34.07433 | -7.73525 | 20389 ft | 422 kts | 354° |
| 2026-05-07 18:15 | 34.10382 | -7.73597 | 21009 ft | 426 kts | 354° |
| 2026-05-07 18:15 | 34.13372 | -7.73671 | 21624 ft | 430 kts | 353° |
| 2026-05-07 18:15 | 34.16384 | -7.73745 | 22222 ft | 434 kts | 353° |
| 2026-05-07 18:16 | 34.19381 | -7.73822 | 22793 ft | 438 kts | 353° |
| 2026-05-07 18:16 | 34.22441 | -7.73976 | 23372 ft | 441 kts | 351° |
| 2026-05-07 18:16 | 34.25522 | -7.74197 | 23869 ft | 445 kts | 351° |
| 2026-05-07 18:16 | 34.28630 | -7.74442 | 24383 ft | 447 kts | 350° |
| 2026-05-07 18:17 | 34.31743 | -7.74686 | 24907 ft | 449 kts | 350° |
| 2026-05-07 18:17 | 34.34874 | -7.74924 | 25406 ft | 452 kts | 350° |
| 2026-05-07 18:17 | 34.38022 | -7.75154 | 25889 ft | 455 kts | 350° |
| 2026-05-07 18:17 | 34.41170 | -7.75379 | 26352 ft | 458 kts | 350° |
| 2026-05-07 18:18 | 34.44365 | -7.75604 | 26809 ft | 460 kts | 350° |
| 2026-05-07 18:18 | 34.47567 | -7.75828 | 27254 ft | 463 kts | 350° |
| 2026-05-07 18:18 | 34.50792 | -7.76054 | 27721 ft | 465 kts | 350° |
| 2026-05-07 18:18 | 34.54035 | -7.76281 | 28159 ft | 467 kts | 350° |
| 2026-05-07 18:19 | 34.57280 | -7.76509 | 28577 ft | 470 kts | 350° |
| 2026-05-07 18:19 | 34.60520 | -7.76737 | 28976 ft | 472 kts | 350° |
| 2026-05-07 18:19 | 34.63851 | -7.76971 | 29376 ft | 475 kts | 350° |
| 2026-05-07 18:19 | 34.67104 | -7.77201 | 29748 ft | 477 kts | 350° |
| 2026-05-07 18:20 | 34.70442 | -7.77436 | 30115 ft | 480 kts | 350° |
| 2026-05-07 18:20 | 34.73827 | -7.77675 | 30433 ft | 482 kts | 350° |
| 2026-05-07 18:20 | 34.77173 | -7.77925 | 30851 ft | 481 kts | 349° |
| 2026-05-07 18:20 | 34.80506 | -7.78195 | 31341 ft | 478 kts | 349° |
| 2026-05-07 18:21 | 34.83778 | -7.78471 | 31801 ft | 476 kts | 349° |
| 2026-05-07 18:21 | 34.87084 | -7.78752 | 32205 ft | 476 kts | 349° |
| 2026-05-07 18:21 | 34.90395 | -7.79033 | 32584 ft | 476 kts | 349° |
| 2026-05-07 18:21 | 34.93696 | -7.79312 | 32990 ft | 475 kts | 349° |
| 2026-05-07 18:22 | 34.96991 | -7.79587 | 33418 ft | 474 kts | 349° |
| 2026-05-07 18:22 | 34.99214 | -7.79773 | 33702 ft | 474 kts | 349° |
| 2026-05-07 18:22 | 35.03567 | -7.80135 | 34219 ft | 473 kts | 349° |
| 2026-05-07 18:22 | 35.06850 | -7.80408 | 34560 ft | 472 kts | 349° |
| 2026-05-07 18:23 | 35.10130 | -7.80681 | 34938 ft | 470 kts | 348° |
| 2026-05-07 18:23 | 35.13395 | -7.80952 | 35310 ft | 469 kts | 348° |
| 2026-05-07 18:23 | 35.16650 | -7.81224 | 35654 ft | 468 kts | 348° |
| 2026-05-07 18:23 | 35.19898 | -7.81496 | 35952 ft | 468 kts | 348° |
| 2026-05-07 18:24 | 35.23179 | -7.81774 | 35942 ft | 473 kts | 348° |
| 2026-05-07 18:24 | 35.29752 | -7.82324 | 35953 ft | 472 kts | 348° |
| 2026-05-07 18:25 | 35.36217 | -7.82862 | 35947 ft | 466 kts | 348° |
| 2026-05-07 18:25 | 35.42690 | -7.83410 | 35956 ft | 466 kts | 348° |
| 2026-05-07 18:26 | 35.49167 | -7.83989 | 35952 ft | 467 kts | 348° |
| 2026-05-07 18:26 | 35.55664 | -7.84581 | 35957 ft | 468 kts | 348° |
| 2026-05-07 18:27 | 35.62161 | -7.85237 | 35942 ft | 464 kts | 342° |
| 2026-05-07 18:27 | 35.65252 | -7.86150 | 35948 ft | 451 kts | 332° |
| 2026-05-07 18:27 | 35.68144 | -7.87567 | 35958 ft | 447 kts | 329° |
| 2026-05-07 18:28 | 35.73852 | -7.90517 | 35950 ft | 448 kts | 328° |
| 2026-05-07 18:28 | 35.79614 | -7.93474 | 35948 ft | 449 kts | 329° |
| 2026-05-07 18:29 | 35.85390 | -7.96397 | 35947 ft | 449 kts | 329° |
| 2026-05-07 18:29 | 35.91183 | -7.99314 | 35948 ft | 450 kts | 329° |
| 2026-05-07 18:30 | 35.96984 | -8.02236 | 35950 ft | 450 kts | 329° |
| 2026-05-07 18:30 | 36.02779 | -8.05162 | 35957 ft | 450 kts | 329° |
| 2026-05-07 18:31 | 36.08579 | -8.08095 | 35946 ft | 450 kts | 329° |
| 2026-05-07 18:31 | 36.14385 | -8.11036 | 35944 ft | 450 kts | 329° |
| 2026-05-07 18:32 | 36.20141 | -8.13956 | 35941 ft | 450 kts | 329° |
| 2026-05-07 18:32 | 36.25941 | -8.16904 | 35948 ft | 450 kts | 329° |
| 2026-05-07 18:33 | 36.31740 | -8.19856 | 35944 ft | 450 kts | 329° |
| 2026-05-07 18:33 | 36.37535 | -8.22811 | 35943 ft | 450 kts | 329° |
| 2026-05-07 18:34 | 36.43323 | -8.25767 | 35942 ft | 449 kts | 329° |
| 2026-05-07 18:34 | 36.49094 | -8.28719 | 35942 ft | 450 kts | 329° |
| 2026-05-07 18:35 | 36.54876 | -8.31682 | 35938 ft | 449 kts | 329° |
| 2026-05-07 18:35 | 36.60659 | -8.34650 | 35945 ft | 449 kts | 329° |
| 2026-05-07 18:35 | 36.63513 | -8.36111 | 35928 ft | 436 kts | 329° |
| 2026-05-07 18:36 | 36.66241 | -8.37499 | 35920 ft | 421 kts | 328° |
| 2026-05-07 18:36 | 36.68902 | -8.38856 | 35915 ft | 407 kts | 328° |
| 2026-05-07 18:36 | 36.71529 | -8.40209 | 35959 ft | 410 kts | 327° |
| 2026-05-07 18:37 | 36.75969 | -8.42526 | 35960 ft | 424 kts | 328° |
| 2026-05-07 18:37 | 36.81521 | -8.45417 | 35959 ft | 440 kts | 328° |
| 2026-05-07 18:38 | 36.87196 | -8.48345 | 35872 ft | 434 kts | 328° |
| 2026-05-07 18:38 | 36.89970 | -8.49768 | 35313 ft | 432 kts | 328° |
| 2026-05-07 18:38 | 36.92774 | -8.51220 | 34413 ft | 440 kts | 329° |
| 2026-05-07 18:38 | 36.95639 | -8.52713 | 33401 ft | 450 kts | 329° |
| 2026-05-07 18:39 | 36.98542 | -8.54226 | 32532 ft | 454 kts | 330° |
| 2026-05-07 18:39 | 37.01457 | -8.55738 | 31956 ft | 451 kts | 330° |
| 2026-05-07 18:39 | 37.04336 | -8.57227 | 31502 ft | 445 kts | 330° |
| 2026-05-07 18:39 | 37.07176 | -8.58697 | 31020 ft | 440 kts | 330° |
| 2026-05-07 18:40 | 37.09996 | -8.60161 | 30498 ft | 437 kts | 330° |
| 2026-05-07 18:40 | 37.12800 | -8.61622 | 29944 ft | 435 kts | 331° |
| 2026-05-07 18:40 | 37.15588 | -8.63076 | 29348 ft | 432 kts | 331° |
| 2026-05-07 18:40 | 37.18349 | -8.64517 | 28793 ft | 428 kts | 331° |
| 2026-05-07 18:41 | 37.21088 | -8.65948 | 28219 ft | 425 kts | 331° |
| 2026-05-07 18:41 | 37.23803 | -8.67368 | 27658 ft | 421 kts | 332° |
| 2026-05-07 18:41 | 37.26504 | -8.68781 | 27106 ft | 418 kts | 332° |
| 2026-05-07 18:41 | 37.29183 | -8.70185 | 26591 ft | 415 kts | 332° |
| 2026-05-07 18:42 | 37.31827 | -8.71572 | 25800 ft | 419 kts | 332° |
| 2026-05-07 18:42 | 37.34508 | -8.72980 | 25379 ft | 414 kts | 332° |
| 2026-05-07 18:42 | 37.37143 | -8.74360 | 25024 ft | 406 kts | 332° |
| 2026-05-07 18:42 | 37.39734 | -8.75719 | 24683 ft | 401 kts | 332° |
| 2026-05-07 18:43 | 37.42300 | -8.77067 | 24335 ft | 397 kts | 332° |
| 2026-05-07 18:43 | 37.44837 | -8.78402 | 23990 ft | 393 kts | 332° |
| 2026-05-07 18:43 | 37.47365 | -8.79735 | 23660 ft | 395 kts | 332° |
| 2026-05-07 18:43 | 37.49878 | -8.81062 | 23289 ft | 398 kts | 332° |
| 2026-05-07 18:44 | 37.52434 | -8.82411 | 22889 ft | 397 kts | 332° |
| 2026-05-07 18:44 | 37.54972 | -8.83748 | 22485 ft | 394 kts | 332° |
| 2026-05-07 18:44 | 37.57494 | -8.85078 | 22095 ft | 391 kts | 332° |
| 2026-05-07 18:44 | 37.59996 | -8.86392 | 21711 ft | 389 kts | 333° |
| 2026-05-07 18:45 | 37.62537 | -8.87549 | 21335 ft | 388 kts | 337° |
| 2026-05-07 18:45 | 37.65110 | -8.88588 | 20957 ft | 387 kts | 338° |
| 2026-05-07 18:45 | 37.67679 | -8.89589 | 20587 ft | 386 kts | 338° |
| 2026-05-07 18:45 | 37.70240 | -8.90590 | 20220 ft | 385 kts | 338° |
| 2026-05-07 18:46 | 37.72790 | -8.91600 | 19858 ft | 383 kts | 338° |
| 2026-05-07 18:46 | 37.75324 | -8.92616 | 19508 ft | 381 kts | 338° |
| 2026-05-07 18:46 | 37.77846 | -8.93637 | 19151 ft | 380 kts | 338° |
| 2026-05-07 18:46 | 37.80363 | -8.94662 | 18800 ft | 378 kts | 338° |
| 2026-05-07 18:47 | 37.82877 | -8.95688 | 18036 ft | 381 kts | 338° |
| 2026-05-07 18:47 | 37.85408 | -8.96725 | 16987 ft | 384 kts | 338° |
| 2026-05-07 18:47 | 37.87954 | -8.97767 | 16187 ft | 381 kts | 339° |
| 2026-05-07 18:47 | 37.90444 | -8.98784 | 15563 ft | 372 kts | 339° |
| 2026-05-07 18:48 | 37.92885 | -8.99782 | 14940 ft | 365 kts | 339° |
| 2026-05-07 18:48 | 37.95278 | -9.00762 | 14338 ft | 359 kts | 340° |
| 2026-05-07 18:48 | 37.97607 | -9.01718 | 13748 ft | 353 kts | 340° |
| 2026-05-07 18:48 | 37.99931 | -9.02671 | 13098 ft | 348 kts | 340° |
| 2026-05-07 18:49 | 38.02217 | -9.03625 | 12452 ft | 344 kts | 340° |
| 2026-05-07 18:49 | 38.04460 | -9.04574 | 11969 ft | 335 kts | 340° |
| 2026-05-07 18:49 | 38.06639 | -9.05498 | 11596 ft | 327 kts | 340° |
| 2026-05-07 18:49 | 38.08792 | -9.06411 | 11219 ft | 325 kts | 340° |
| 2026-05-07 18:50 | 38.10929 | -9.07315 | 10871 ft | 321 kts | 340° |
| 2026-05-07 18:50 | 38.13012 | -9.08196 | 10718 ft | 306 kts | 340° |
| 2026-05-07 18:50 | 38.14978 | -9.09025 | 10605 ft | 291 kts | 341° |
| 2026-05-07 18:50 | 38.16955 | -9.09345 | 10449 ft | 286 kts | 7° |
| 2026-05-07 18:51 | 38.18806 | -9.08526 | 10201 ft | 282 kts | 33° |
| 2026-05-07 18:51 | 38.20274 | -9.06936 | 9938 ft | 277 kts | 50° |
| 2026-05-07 18:51 | 38.21544 | -9.05097 | 9606 ft | 277 kts | 52° |
| 2026-05-07 18:51 | 38.22777 | -9.03254 | 9323 ft | 275 kts | 52° |
| 2026-05-07 18:52 | 38.24019 | -9.01406 | 9004 ft | 274 kts | 52° |
| 2026-05-07 18:52 | 38.25263 | -8.99574 | 8715 ft | 273 kts | 51° |
| 2026-05-07 18:52 | 38.26506 | -8.97759 | 8448 ft | 271 kts | 51° |
| 2026-05-07 18:52 | 38.27747 | -8.95951 | 8101 ft | 272 kts | 51° |
| 2026-05-07 18:53 | 38.28988 | -8.94145 | 7853 ft | 269 kts | 51° |
| 2026-05-07 18:53 | 38.30298 | -8.92449 | 7538 ft | 271 kts | 35° |
| 2026-05-07 18:53 | 38.32055 | -8.91647 | 7222 ft | 271 kts | 2° |
| 2026-05-07 18:53 | 38.33874 | -8.92048 | 7009 ft | 264 kts | 333° |
| 2026-05-07 18:54 | 38.35347 | -8.93310 | 6960 ft | 251 kts | 315° |
| 2026-05-07 18:54 | 38.36602 | -8.94829 | 6939 ft | 247 kts | 312° |
| 2026-05-07 18:54 | 38.37808 | -8.96344 | 6932 ft | 245 kts | 312° |
| 2026-05-07 18:54 | 38.38970 | -8.97932 | 6925 ft | 244 kts | 299° |
| 2026-05-07 18:55 | 38.39479 | -8.99948 | 6943 ft | 240 kts | 267° |
| 2026-05-07 18:55 | 38.39141 | -9.01994 | 6945 ft | 235 kts | 242° |
| 2026-05-07 18:55 | 38.38314 | -9.03760 | 6942 ft | 232 kts | 234° |
| 2026-05-07 18:55 | 38.37409 | -9.05457 | 6931 ft | 231 kts | 233° |
| 2026-05-07 18:56 | 38.36508 | -9.07146 | 6929 ft | 230 kts | 233° |
| 2026-05-07 18:56 | 38.35616 | -9.08834 | 6930 ft | 229 kts | 234° |
| 2026-05-07 18:56 | 38.34750 | -9.10537 | 6935 ft | 228 kts | 242° |
| 2026-05-07 18:56 | 38.34331 | -9.12484 | 6946 ft | 229 kts | 257° |
| 2026-05-07 18:57 | 38.34049 | -9.14498 | 6945 ft | 233 kts | 257° |
| 2026-05-07 18:57 | 38.33749 | -9.16510 | 6943 ft | 234 kts | 257° |
| 2026-05-07 18:57 | 38.33435 | -9.18572 | 6943 ft | 235 kts | 257° |
| 2026-05-07 18:57 | 38.33120 | -9.20626 | 6943 ft | 237 kts | 257° |
| 2026-05-07 18:58 | 38.32808 | -9.22664 | 6944 ft | 237 kts | 257° |
| 2026-05-07 18:58 | 38.32786 | -9.24752 | 6934 ft | 239 kts | 278° |
| 2026-05-07 18:58 | 38.33140 | -9.26809 | 6942 ft | 237 kts | 279° |
| 2026-05-07 18:58 | 38.33486 | -9.28889 | 6932 ft | 237 kts | 279° |
| 2026-05-07 18:59 | 38.33816 | -9.30917 | 6942 ft | 236 kts | 278° |
| 2026-05-07 18:59 | 38.34143 | -9.32964 | 6931 ft | 236 kts | 278° |
| 2026-05-07 18:59 | 38.34468 | -9.35009 | 6936 ft | 235 kts | 278° |
| 2026-05-07 18:59 | 38.34905 | -9.37012 | 6928 ft | 238 kts | 294° |
| 2026-05-07 19:00 | 38.35830 | -9.38780 | 6945 ft | 240 kts | 301° |
| 2026-05-07 19:00 | 38.36780 | -9.40528 | 6946 ft | 240 kts | 300° |
| 2026-05-07 19:00 | 38.37721 | -9.42289 | 6948 ft | 241 kts | 300° |
| 2026-05-07 19:00 | 38.38660 | -9.44062 | 6946 ft | 241 kts | 300° |
| 2026-05-07 19:01 | 38.39680 | -9.45770 | 6932 ft | 245 kts | 316° |
| 2026-05-07 19:01 | 38.41248 | -9.46593 | 6975 ft | 250 kts | 354° |
| 2026-05-07 19:01 | 38.42936 | -9.46254 | 6951 ft | 249 kts | 21° |
| 2026-05-07 19:01 | 38.44359 | -9.45067 | 6951 ft | 242 kts | 44° |
| 2026-05-07 19:02 | 38.45503 | -9.43535 | 6934 ft | 234 kts | 49° |
| 2026-05-07 19:02 | 38.46549 | -9.42008 | 6864 ft | 223 kts | 50° |
| 2026-05-07 19:02 | 38.47572 | -9.40504 | 6434 ft | 225 kts | 50° |
| 2026-05-07 19:02 | 38.48589 | -9.39016 | 6122 ft | 219 kts | 49° |
| 2026-05-07 19:03 | 38.49590 | -9.37560 | 5712 ft | 219 kts | 48° |
| 2026-05-07 19:03 | 38.50593 | -9.36108 | 5323 ft | 217 kts | 47° |
| 2026-05-07 19:03 | 38.51607 | -9.34644 | 4862 ft | 219 kts | 47° |
| 2026-05-07 19:03 | 38.52620 | -9.33186 | 4451 ft | 218 kts | 46° |
| 2026-05-07 19:04 | 38.53625 | -9.31742 | 4070 ft | 216 kts | 45° |
| 2026-05-07 19:04 | 38.54622 | -9.30311 | 4021 ft | 217 kts | 46° |
| 2026-05-07 19:04 | 38.55618 | -9.28882 | 4013 ft | 217 kts | 46° |
| 2026-05-07 19:04 | 38.56633 | -9.27427 | 4015 ft | 222 kts | 45° |
| 2026-05-07 19:05 | 38.57668 | -9.25940 | 4014 ft | 224 kts | 45° |
| 2026-05-07 19:05 | 38.58693 | -9.24468 | 4001 ft | 218 kts | 45° |
| 2026-05-07 19:05 | 38.59841 | -9.23341 | 3897 ft | 201 kts | 19° |
| 2026-05-07 19:05 | 38.61140 | -9.22754 | 3671 ft | 197 kts | 18° |
| 2026-05-07 19:06 | 38.62386 | -9.22064 | 3416 ft | 194 kts | 19° |
| 2026-05-07 19:06 | 38.64825 | -9.20733 | 2898 ft | 187 kts | 18° |
| 2026-05-07 19:06 | 38.66016 | -9.20094 | 2635 ft | 183 kts | 18° |
| 2026-05-07 19:07 | 38.67145 | -9.19486 | 2424 ft | 170 kts | 17° |
| 2026-05-07 19:07 | 38.68209 | -9.18917 | 2147 ft | 162 kts | 17° |
| 2026-05-07 19:07 | 38.69203 | -9.18382 | 1959 ft | 149 kts | 17° |
| 2026-05-07 19:07 | 38.70147 | -9.17879 | 1750 ft | 149 kts | 18° |
| 2026-05-07 19:08 | 38.71090 | -9.17359 | 1534 ft | 145 kts | 18° |
| 2026-05-07 19:08 | 38.72025 | -9.16843 | 1373 ft | 150 kts | 16° |
| 2026-05-07 19:08 | 38.72995 | -9.16338 | 1157 ft | 151 kts | 17° |
| 2026-05-07 19:08 | 38.73958 | -9.15820 | 980 ft | 148 kts | 16° |
| 2026-05-07 19:09 | 38.74903 | -9.15325 | 747 ft | 146 kts | 17° |
| 2026-05-07 19:09 | 38.75846 | -9.14820 | 570 ft | 147 kts | 19° |
| 2026-05-07 19:09 | 38.76792 | -9.14303 | 368 ft | 146 kts | 15° |
| 2026-05-07 19:09 | 38.77654 | -9.13843 | 368 ft | 121 kts | 13° |
| 2026-05-07 19:10 | 38.78262 | -9.13524 | 365 ft | 60 kts | 22° |
| 2026-05-07 19:10 | 38.78504 | -9.13393 | 367 ft | 16 kts | 30° |
| 2026-05-07 19:10 | 38.78535 | -9.13284 | 359 ft | 12 kts | 106° |
| 2026-05-07 19:10 | 38.78472 | -9.13227 | 360 ft | 12 kts | 168° |
| 2026-05-07 19:11 | 38.78384 | -9.13232 | 362 ft | 14 kts | 196° |
| 2026-05-07 19:11 | 38.78295 | -9.13278 | 361 ft | 13 kts | 203° |
| 2026-05-07 19:11 | 38.78210 | -9.13325 | 360 ft | 14 kts | 200° |
| 2026-05-07 19:11 | 38.78122 | -9.13369 | 362 ft | 11 kts | 202° |
| 2026-05-07 19:12 | 38.78110 | -9.13376 | 357 ft | 1 kts | 202° |
| 2026-05-07 19:12 | 38.78095 | -9.13383 | 360 ft | 3 kts | 203° |
| 2026-05-07 19:12 | 38.78069 | -9.13398 | 361 ft | 5 kts | 203° |
| 2026-05-07 19:12 | 38.78029 | -9.13412 | 358 ft | 8 kts | 188° |
| 2026-05-07 19:13 | 38.77944 | -9.13396 | 351 ft | 17 kts | 168° |
| 2026-05-07 19:13 | 38.77817 | -9.13362 | 346 ft | 10 kts | 168° |
| 2026-05-07 19:13 | 38.77737 | -9.13340 | 336 ft | 14 kts | 168° |
| 2026-05-07 19:13 | 38.77651 | -9.13320 | 337 ft | 11 kts | 178° |
| 2026-05-07 19:14 | 38.77576 | -9.13318 | 337 ft | 11 kts | 174° |
| 2026-05-07 19:14 | 38.77534 | -9.13270 | 336 ft | 8 kts | 79° |
| 2026-05-07 19:14 | 38.77546 | -9.13201 | 336 ft | 8 kts | 78° |
| 2026-05-07 19:14 | 38.77550 | -9.13174 | 336 ft | 0 kts | 78° |